Terminal Aerodrome Forecast
Issued by NWS Bismarck, ND

Home | Current Version | Previous Version | Text Only | Print | Product List | Glossary On
Versions: 1 2 3 4 5 6 7 8 9 10 11 12
000
FTUS43 KBIS 290526
TAFISN
TAF
KISN 290526Z 2906/3006 VRB03KT P6SM SCT110 SCT250
     FM291800 23007KT P6SM SCT050 SCT200
     FM300300 15005KT P6SM SCT150=

USA.gov is the U.S. government's official web portal to all federal, state and local government web resources and services.